sensor_id;sensor_type;location;lat;lon;timestamp;pressure;altitude;pressure_sealevel;temperature;humidity
33432;BME280;35187;31.882;34.828;2023-04-19T00:01:41;100430;;;21;38
33432;BME280;35187;31.882;34.828;2023-04-19T00:04:10;100430;;;21;38
33432;BME280;35187;31.882;34.828;2023-04-19T00:06:41;100420;;;21;38
33432;BME280;35187;31.882;34.828;2023-04-19T00:09:10;100420;;;21;38
33432;BME280;35187;31.882;34.828;2023-04-19T00:11:41;100420;;;21;39
33432;BME280;35187;31.882;34.828;2023-04-19T00:14:10;100420;;;21;39
33432;BME280;35187;31.882;34.828;2023-04-19T00:16:39;100420;;;21;39
33432;BME280;35187;31.882;34.828;2023-04-19T00:19:09;100420;;;21;39
33432;BME280;35187;31.882;34.828;2023-04-19T00:21:38;100410;;;21;39
33432;BME280;35187;31.882;34.828;2023-04-19T00:24:07;100410;;;21;39
33432;BME280;35187;31.882;34.828;2023-04-19T00:26:37;100410;;;21;39
33432;BME280;35187;31.882;34.828;2023-04-19T00:29:07;100410;;;21;39
33432;BME280;35187;31.882;34.828;2023-04-19T00:31:36;100410;;;21;39
33432;BME280;35187;31.882;34.828;2023-04-19T00:34:06;100400;;;21;39
33432;BME280;35187;31.882;34.828;2023-04-19T00:36:35;100400;;;21;38
33432;BME280;35187;31.882;34.828;2023-04-19T00:39:04;100400;;;21;38
33432;BME280;35187;31.882;34.828;2023-04-19T00:41:34;100400;;;21;38
33432;BME280;35187;31.882;34.828;2023-04-19T00:44:04;100390;;;21;37
33432;BME280;35187;31.882;34.828;2023-04-19T00:46:33;100390;;;21;37
33432;BME280;35187;31.882;34.828;2023-04-19T00:49:03;100390;;;21;37
33432;BME280;35187;31.882;34.828;2023-04-19T00:51:34;100390;;;20;38
33432;BME280;35187;31.882;34.828;2023-04-19T00:54:04;100390;;;21;38
33432;BME280;35187;31.882;34.828;2023-04-19T00:56:34;100390;;;20;38
33432;BME280;35187;31.882;34.828;2023-04-19T00:59:03;100390;;;21;38
33432;BME280;35187;31.882;34.828;2023-04-19T01:01:35;100380;;;21;38
33432;BME280;35187;31.882;34.828;2023-04-19T01:04:04;100380;;;21;39
33432;BME280;35187;31.882;34.828;2023-04-19T01:06:35;100380;;;21;39
33432;BME280;35187;31.882;34.828;2023-04-19T01:09:04;100380;;;21;39
33432;BME280;35187;31.882;34.828;2023-04-19T01:11:34;100380;;;21;39
33432;BME280;35187;31.882;34.828;2023-04-19T01:14:03;100380;;;21;39
33432;BME280;35187;31.882;34.828;2023-04-19T01:16:33;100380;;;21;39
33432;BME280;35187;31.882;34.828;2023-04-19T01:19:02;100380;;;21;38
33432;BME280;35187;31.882;34.828;2023-04-19T01:21:31;100380;;;21;39
33432;BME280;35187;31.882;34.828;2023-04-19T01:24:00;100390;;;20;39
33432;BME280;35187;31.882;34.828;2023-04-19T01:26:31;100390;;;21;39
33432;BME280;35187;31.882;34.828;2023-04-19T01:29:00;100390;;;21;39
33432;BME280;35187;31.882;34.828;2023-04-19T01:31:29;100390;;;21;38
33432;BME280;35187;31.882;34.828;2023-04-19T01:33:59;100390;;;20;38
33432;BME280;35187;31.882;34.828;2023-04-19T01:36:29;100380;;;21;39
33432;BME280;35187;31.882;34.828;2023-04-19T01:39:00;100380;;;20;39
33432;BME280;35187;31.882;34.828;2023-04-19T01:41:29;100380;;;21;39
33432;BME280;35187;31.882;34.828;2023-04-19T01:43:58;100380;;;21;39
33432;BME280;35187;31.882;34.828;2023-04-19T01:46:28;100380;;;21;39
33432;BME280;35187;31.882;34.828;2023-04-19T01:48:57;100380;;;21;39
33432;BME280;35187;31.882;34.828;2023-04-19T01:51:26;100370;;;21;39
33432;BME280;35187;31.882;34.828;2023-04-19T01:53:55;100360;;;21;39
33432;BME280;35187;31.882;34.828;2023-04-19T01:56:24;100360;;;21;38
33432;BME280;35187;31.882;34.828;2023-04-19T01:58:53;100360;;;21;38
33432;BME280;35187;31.882;34.828;2023-04-19T02:01:22;100370;;;20;38
33432;BME280;35187;31.882;34.828;2023-04-19T02:03:53;100370;;;21;38
33432;BME280;35187;31.882;34.828;2023-04-19T02:06:22;100370;;;21;38
33432;BME280;35187;31.882;34.828;2023-04-19T02:08:52;100370;;;21;37
33432;BME280;35187;31.882;34.828;2023-04-19T02:11:23;100360;;;21;37
33432;BME280;35187;31.882;34.828;2023-04-19T02:13:52;100360;;;21;37
33432;BME280;35187;31.882;34.828;2023-04-19T02:16:21;100360;;;21;37
33432;BME280;35187;31.882;34.828;2023-04-19T02:18:50;100360;;;21;37
33432;BME280;35187;31.882;34.828;2023-04-19T02:21:19;100360;;;21;37
33432;BME280;35187;31.882;34.828;2023-04-19T02:23:48;100360;;;21;36
33432;BME280;35187;31.882;34.828;2023-04-19T02:26:17;100370;;;21;36
33432;BME280;35187;31.882;34.828;2023-04-19T02:28:46;100380;;;21;36
33432;BME280;35187;31.882;34.828;2023-04-19T02:31:15;100380;;;21;36
33432;BME280;35187;31.882;34.828;2023-04-19T02:33:46;100380;;;21;36
33432;BME280;35187;31.882;34.828;2023-04-19T02:36:16;100370;;;21;36
33432;BME280;35187;31.882;34.828;2023-04-19T02:38:51;100370;;;21;36
33432;BME280;35187;31.882;34.828;2023-04-19T02:41:20;100380;;;21;36
33432;BME280;35187;31.882;34.828;2023-04-19T02:43:50;100370;;;21;36
33432;BME280;35187;31.882;34.828;2023-04-19T02:46:19;100370;;;21;36
33432;BME280;35187;31.882;34.828;2023-04-19T02:48:51;100360;;;21;36
33432;BME280;35187;31.882;34.828;2023-04-19T02:51:20;100360;;;21;36
33432;BME280;35187;31.882;34.828;2023-04-19T02:53:49;100360;;;21;36
33432;BME280;35187;31.882;34.828;2023-04-19T02:56:18;100350;;;21;36
33432;BME280;35187;31.882;34.828;2023-04-19T02:58:47;100350;;;21;36
33432;BME280;35187;31.882;34.828;2023-04-19T03:01:17;100350;;;21;36
33432;BME280;35187;31.882;34.828;2023-04-19T03:03:46;100360;;;20;36
33432;BME280;35187;31.882;34.828;2023-04-19T03:06:16;100360;;;21;36
33432;BME280;35187;31.882;34.828;2023-04-19T03:08:45;100360;;;20;36
33432;BME280;35187;31.882;34.828;2023-04-19T03:11:15;100360;;;21;35
33432;BME280;35187;31.882;34.828;2023-04-19T03:13:45;100360;;;21;35
33432;BME280;35187;31.882;34.828;2023-04-19T03:16:15;100360;;;21;36
33432;BME280;35187;31.882;34.828;2023-04-19T03:18:44;100360;;;21;36
33432;BME280;35187;31.882;34.828;2023-04-19T03:21:13;100360;;;20;36
33432;BME280;35187;31.882;34.828;2023-04-19T03:23:42;100360;;;21;36
33432;BME280;35187;31.882;34.828;2023-04-19T03:26:12;100360;;;21;36
33432;BME280;35187;31.882;34.828;2023-04-19T03:28:41;100360;;;21;36
33432;BME280;35187;31.882;34.828;2023-04-19T03:31:12;100360;;;21;36
33432;BME280;35187;31.882;34.828;2023-04-19T03:33:41;100350;;;20;36
33432;BME280;35187;31.882;34.828;2023-04-19T03:36:11;100350;;;21;37
33432;BME280;35187;31.882;34.828;2023-04-19T03:38:40;100350;;;20;37
33432;BME280;35187;31.882;34.828;2023-04-19T03:41:18;100350;;;21;37
33432;BME280;35187;31.882;34.828;2023-04-19T03:43:47;100350;;;21;37
33432;BME280;35187;31.882;34.828;2023-04-19T03:46:17;100360;;;20;37
33432;BME280;35187;31.882;34.828;2023-04-19T03:48:46;100360;;;21;37
33432;BME280;35187;31.882;34.828;2023-04-19T03:51:15;100360;;;21;37
33432;BME280;35187;31.882;34.828;2023-04-19T03:53:45;100360;;;20;37
33432;BME280;35187;31.882;34.828;2023-04-19T03:56:14;100350;;;21;38
33432;BME280;35187;31.882;34.828;2023-04-19T03:58:43;100350;;;21;38
33432;BME280;35187;31.882;34.828;2023-04-19T04:01:17;100350;;;21;38
33432;BME280;35187;31.882;34.828;2023-04-19T04:03:46;100350;;;21;38
33432;BME280;35187;31.882;34.828;2023-04-19T04:06:16;100350;;;21;38
33432;BME280;35187;31.882;34.828;2023-04-19T04:08:45;100350;;;21;38
33432;BME280;35187;31.882;34.828;2023-04-19T04:11:14;100350;;;21;38
33432;BME280;35187;31.882;34.828;2023-04-19T04:13:43;100350;;;21;38
33432;BME280;35187;31.882;34.828;2023-04-19T04:16:12;100350;;;21;39
33432;BME280;35187;31.882;34.828;2023-04-19T04:18:42;100350;;;21;38
33432;BME280;35187;31.882;34.828;2023-04-19T04:21:11;100350;;;21;39
33432;BME280;35187;31.882;34.828;2023-04-19T04:23:40;100350;;;21;39
33432;BME280;35187;31.882;34.828;2023-04-19T04:26:10;100350;;;21;39
33432;BME280;35187;31.882;34.828;2023-04-19T04:28:40;100350;;;21;39
33432;BME280;35187;31.882;34.828;2023-04-19T04:31:10;100350;;;21;39
33432;BME280;35187;31.882;34.828;2023-04-19T04:33:39;100350;;;21;38
33432;BME280;35187;31.882;34.828;2023-04-19T04:36:09;100350;;;21;38
33432;BME280;35187;31.882;34.828;2023-04-19T04:38:38;100350;;;21;38
33432;BME280;35187;31.882;34.828;2023-04-19T04:41:08;100360;;;21;38
33432;BME280;35187;31.882;34.828;2023-04-19T04:43:38;100360;;;21;38
33432;BME280;35187;31.882;34.828;2023-04-19T04:46:07;100360;;;21;38
33432;BME280;35187;31.882;34.828;2023-04-19T04:48:37;100370;;;21;38
33432;BME280;35187;31.882;34.828;2023-04-19T04:51:06;100370;;;21;38
33432;BME280;35187;31.882;34.828;2023-04-19T04:53:36;100370;;;21;38
33432;BME280;35187;31.882;34.828;2023-04-19T04:56:06;100360;;;21;38
33432;BME280;35187;31.882;34.828;2023-04-19T04:58:36;100350;;;21;38
33432;BME280;35187;31.882;34.828;2023-04-19T05:01:05;100360;;;21;38
33432;BME280;35187;31.882;34.828;2023-04-19T05:03:34;100360;;;21;39
33432;BME280;35187;31.882;34.828;2023-04-19T05:06:05;100360;;;21;39
33432;BME280;35187;31.882;34.828;2023-04-19T05:43:18;100360;;;20;40
33432;BME280;35187;31.882;34.828;2023-04-19T05:45:48;100360;;;20;41
33432;BME280;35187;31.882;34.828;2023-04-19T05:48:16;100360;;;21;40
33432;BME280;35187;31.882;34.828;2023-04-19T05:51:54;100370;;;21;41
33432;BME280;35187;31.882;34.828;2023-04-19T05:55:08;100370;;;21;41
33432;BME280;35187;31.882;34.828;2023-04-19T05:57:37;100370;;;21;41
33432;BME280;35187;31.882;34.828;2023-04-19T06:00:07;100380;;;21;41
33432;BME280;35187;31.882;34.828;2023-04-19T06:02:36;100380;;;21;41
33432;BME280;35187;31.882;34.828;2023-04-19T06:05:05;100380;;;21;41
33432;BME280;35187;31.882;34.828;2023-04-19T06:07:52;100370;;;22;42
33432;BME280;35187;31.882;34.828;2023-04-19T06:10:28;100360;;;21;42
33432;BME280;35187;31.882;34.828;2023-04-19T06:13:13;100370;;;21;42
33432;BME280;35187;31.882;34.828;2023-04-19T06:15:42;100370;;;21;42
33432;BME280;35187;31.882;34.828;2023-04-19T06:18:12;100370;;;21;42
33432;BME280;35187;31.882;34.828;2023-04-19T06:21:03;100370;;;22;43
33432;BME280;35187;31.882;34.828;2023-04-19T06:23:32;100370;;;22;43
33432;BME280;35187;31.882;34.828;2023-04-19T06:26:01;100370;;;21;43
33432;BME280;35187;31.882;34.828;2023-04-19T06:28:30;100370;;;22;43
33432;BME280;35187;31.882;34.828;2023-04-19T06:30:58;100370;;;21;44
33432;BME280;35187;31.882;34.828;2023-04-19T06:33:27;100370;;;22;44
33432;BME280;35187;31.882;34.828;2023-04-19T06:35:56;100370;;;22;44
33432;BME280;35187;31.882;34.828;2023-04-19T06:38:25;100370;;;22;44
33432;BME280;35187;31.882;34.828;2023-04-19T06:40:54;100370;;;22;44
33432;BME280;35187;31.882;34.828;2023-04-19T06:43:27;100370;;;21;44
33432;BME280;35187;31.882;34.828;2023-04-19T06:45:58;100370;;;22;44
33432;BME280;35187;31.882;34.828;2023-04-19T06:48:27;100370;;;21;44
33432;BME280;35187;31.882;34.828;2023-04-19T06:50:56;100370;;;21;44
33432;BME280;35187;31.882;34.828;2023-04-19T06:53:26;100360;;;21;44
33432;BME280;35187;31.882;34.828;2023-04-19T06:55:58;100360;;;21;44
33432;BME280;35187;31.882;34.828;2023-04-19T06:58:27;100360;;;22;44
33432;BME280;35187;31.882;34.828;2023-04-19T07:00:57;100350;;;22;44
33432;BME280;35187;31.882;34.828;2023-04-19T07:03:26;100350;;;21;44
33432;BME280;35187;31.882;34.828;2023-04-19T07:05:56;100360;;;21;44
33432;BME280;35187;31.882;34.828;2023-04-19T07:08:25;100360;;;22;44
33432;BME280;35187;31.882;34.828;2023-04-19T07:10:54;100360;;;21;44
33432;BME280;35187;31.882;34.828;2023-04-19T07:13:28;100360;;;21;44
33432;BME280;35187;31.882;34.828;2023-04-19T07:15:57;100360;;;22;44
33432;BME280;35187;31.882;34.828;2023-04-19T07:18:28;100360;;;22;44
33432;BME280;35187;31.882;34.828;2023-04-19T07:20:59;100360;;;22;44
33432;BME280;35187;31.882;34.828;2023-04-19T07:23:28;100360;;;21;44
33432;BME280;35187;31.882;34.828;2023-04-19T07:25:57;100360;;;21;44
33432;BME280;35187;31.882;34.828;2023-04-19T07:28:27;100360;;;22;43
33432;BME280;35187;31.882;34.828;2023-04-19T07:30:56;100360;;;22;44
33432;BME280;35187;31.882;34.828;2023-04-19T07:33:25;100360;;;21;44
33432;BME280;35187;31.882;34.828;2023-04-19T07:35:55;100360;;;21;42
33432;BME280;35187;31.882;34.828;2023-04-19T07:38:31;100360;;;21;43
33432;BME280;35187;31.882;34.828;2023-04-19T07:40:59;100350;;;21;43
33432;BME280;35187;31.882;34.828;2023-04-19T07:43:29;100350;;;21;44
33432;BME280;35187;31.882;34.828;2023-04-19T07:45:58;100350;;;22;44
33432;BME280;35187;31.882;34.828;2023-04-19T07:48:27;100350;;;21;43
33432;BME280;35187;31.882;34.828;2023-04-19T07:50:56;100350;;;21;44
33432;BME280;35187;31.882;34.828;2023-04-19T07:53:24;100350;;;22;44
33432;BME280;35187;31.882;34.828;2023-04-19T07:55:53;100350;;;21;44
33432;BME280;35187;31.882;34.828;2023-04-19T07:58:22;100350;;;22;44
33432;BME280;35187;31.882;34.828;2023-04-19T08:00:51;100350;;;22;44
33432;BME280;35187;31.882;34.828;2023-04-19T08:03:19;100350;;;21;44
33432;BME280;35187;31.882;34.828;2023-04-19T08:05:48;100350;;;21;44
33432;BME280;35187;31.882;34.828;2023-04-19T08:08:18;100350;;;22;43
33432;BME280;35187;31.882;34.828;2023-04-19T08:10:47;100360;;;22;43
33432;BME280;35187;31.882;34.828;2023-04-19T08:13:16;100360;;;22;42
33432;BME280;35187;31.882;34.828;2023-04-19T08:16:00;100360;;;21;41
33432;BME280;35187;31.882;34.828;2023-04-19T08:19:04;100350;;;22;41
33432;BME280;35187;31.882;34.828;2023-04-19T08:21:55;100350;;;22;40
33432;BME280;35187;31.882;34.828;2023-04-19T08:24:31;100340;;;22;40
33432;BME280;35187;31.882;34.828;2023-04-19T08:27:00;100340;;;22;39
33432;BME280;35187;31.882;34.828;2023-04-19T08:29:29;100340;;;22;38
33432;BME280;35187;31.882;34.828;2023-04-19T08:31:58;100330;;;22;38
33432;BME280;35187;31.882;34.828;2023-04-19T08:34:27;100330;;;22;39
33432;BME280;35187;31.882;34.828;2023-04-19T08:36:56;100330;;;22;39
33432;BME280;35187;31.882;34.828;2023-04-19T08:39:25;100320;;;22;37
33432;BME280;35187;31.882;34.828;2023-04-19T08:42:02;100320;;;22;37
33432;BME280;35187;31.882;34.828;2023-04-19T08:44:32;100320;;;22;35
33432;BME280;35187;31.882;34.828;2023-04-19T08:47:02;100320;;;22;35
33432;BME280;35187;31.882;34.828;2023-04-19T08:49:34;100320;;;21;35
33432;BME280;35187;31.882;34.828;2023-04-19T08:52:04;100320;;;22;35
33432;BME280;35187;31.882;34.828;2023-04-19T08:54:34;100310;;;21;35
33432;BME280;35187;31.882;34.828;2023-04-19T08:57:04;100310;;;22;35
33432;BME280;35187;31.882;34.828;2023-04-19T08:59:34;100310;;;22;35
33432;BME280;35187;31.882;34.828;2023-04-19T09:02:11;100310;;;22;34
33432;BME280;35187;31.882;34.828;2023-04-19T09:04:39;100300;;;22;34
33432;BME280;35187;31.882;34.828;2023-04-19T09:07:08;100300;;;22;34
33432;BME280;35187;31.882;34.828;2023-04-19T09:10:05;100300;;;22;34
33432;BME280;35187;31.882;34.828;2023-04-19T09:12:35;100300;;;22;34
33432;BME280;35187;31.882;34.828;2023-04-19T09:15:06;100300;;;22;34
33432;BME280;35187;31.882;34.828;2023-04-19T09:17:36;100300;;;22;35
33432;BME280;35187;31.882;34.828;2023-04-19T09:20:06;100300;;;22;34
33432;BME280;35187;31.882;34.828;2023-04-19T09:22:35;100300;;;21;34
33432;BME280;35187;31.882;34.828;2023-04-19T09:25:05;100300;;;21;34
33432;BME280;35187;31.882;34.828;2023-04-19T09:27:34;100290;;;22;34
33432;BME280;35187;31.882;34.828;2023-04-19T09:30:05;100290;;;21;35
33432;BME280;35187;31.882;34.828;2023-04-19T09:32:46;100290;;;22;35
33432;BME280;35187;31.882;34.828;2023-04-19T09:35:15;100280;;;21;35
33432;BME280;35187;31.882;34.828;2023-04-19T09:38:05;100280;;;21;35
33432;BME280;35187;31.882;34.828;2023-04-19T09:40:34;100280;;;21;35
33432;BME280;35187;31.882;34.828;2023-04-19T09:43:04;100270;;;21;36
33432;BME280;35187;31.882;34.828;2023-04-19T09:45:40;100270;;;22;36
33432;BME280;35187;31.882;34.828;2023-04-19T09:48:10;100270;;;21;36
33432;BME280;35187;31.882;34.828;2023-04-19T09:50:52;100270;;;21;36
33432;BME280;35187;31.882;34.828;2023-04-19T09:53:22;100260;;;21;36
33432;BME280;35187;31.882;34.828;2023-04-19T09:55:52;100260;;;21;36
33432;BME280;35187;31.882;34.828;2023-04-19T09:58:21;100260;;;21;37
33432;BME280;35187;31.882;34.828;2023-04-19T10:00:50;100260;;;21;37
33432;BME280;35187;31.882;34.828;2023-04-19T10:03:19;100270;;;22;37
33432;BME280;35187;31.882;34.828;2023-04-19T10:05:49;100260;;;21;37
33432;BME280;35187;31.882;34.828;2023-04-19T10:08:19;100270;;;21;38
33432;BME280;35187;31.882;34.828;2023-04-19T10:10:48;100260;;;21;38
33432;BME280;35187;31.882;34.828;2023-04-19T10:13:18;100260;;;21;38
33432;BME280;35187;31.882;34.828;2023-04-19T10:15:47;100260;;;21;38
33432;BME280;35187;31.882;34.828;2023-04-19T10:18:17;100260;;;22;38
33432;BME280;35187;31.882;34.828;2023-04-19T10:20:52;100260;;;21;38
33432;BME280;35187;31.882;34.828;2023-04-19T10:23:23;100270;;;21;38
33432;BME280;35187;31.882;34.828;2023-04-19T10:25:55;100270;;;21;39
33432;BME280;35187;31.882;34.828;2023-04-19T10:28:27;100270;;;21;39
33432;BME280;35187;31.882;34.828;2023-04-19T10:31:04;100270;;;21;39
33432;BME280;35187;31.882;34.828;2023-04-19T10:33:36;100280;;;21;39
33432;BME280;35187;31.882;34.828;2023-04-19T10:36:08;100280;;;21;39
33432;BME280;35187;31.882;34.828;2023-04-19T10:38:44;100280;;;22;39
33432;BME280;35187;31.882;34.828;2023-04-19T10:41:14;100280;;;21;39
33432;BME280;35187;31.882;34.828;2023-04-19T10:43:45;100290;;;21;40
33432;BME280;35187;31.882;34.828;2023-04-19T10:46:16;100290;;;21;40
33432;BME280;35187;31.882;34.828;2023-04-19T10:49:04;100300;;;21;40
33432;BME280;35187;31.882;34.828;2023-04-19T10:51:35;100310;;;21;40
33432;BME280;35187;31.882;34.828;2023-04-19T10:54:04;100320;;;21;40
33432;BME280;35187;31.882;34.828;2023-04-19T10:57:07;100350;;;21;40
33432;BME280;35187;31.882;34.828;2023-04-19T10:59:37;100360;;;22;40
33432;BME280;35187;31.882;34.828;2023-04-19T11:02:26;100360;;;21;40
33432;BME280;35187;31.882;34.828;2023-04-19T11:05:00;100370;;;21;40
33432;BME280;35187;31.882;34.828;2023-04-19T11:07:37;100360;;;21;40
33432;BME280;35187;31.882;34.828;2023-04-19T11:10:07;100350;;;21;40
33432;BME280;35187;31.882;34.828;2023-04-19T11:12:40;100350;;;22;40
33432;BME280;35187;31.882;34.828;2023-04-19T11:15:09;100360;;;22;40
33432;BME280;35187;31.882;34.828;2023-04-19T11:17:38;100340;;;21;40
33432;BME280;35187;31.882;34.828;2023-04-19T11:20:10;100340;;;21;40
33432;BME280;35187;31.882;34.828;2023-04-19T11:22:40;100320;;;21;40
33432;BME280;35187;31.882;34.828;2023-04-19T11:25:10;100320;;;22;40
33432;BME280;35187;31.882;34.828;2023-04-19T11:27:40;100320;;;21;39
33432;BME280;35187;31.882;34.828;2023-04-19T11:30:11;100330;;;21;39
33432;BME280;35187;31.882;34.828;2023-04-19T11:32:48;100320;;;22;39
33432;BME280;35187;31.882;34.828;2023-04-19T11:35:19;100320;;;22;39
33432;BME280;35187;31.882;34.828;2023-04-19T11:37:49;100320;;;22;39
33432;BME280;35187;31.882;34.828;2023-04-19T11:40:19;100320;;;22;39
33432;BME280;35187;31.882;34.828;2023-04-19T11:42:53;100290;;;22;39
33432;BME280;35187;31.882;34.828;2023-04-19T11:45:24;100290;;;22;39
33432;BME280;35187;31.882;34.828;2023-04-19T11:47:54;100300;;;22;39
33432;BME280;35187;31.882;34.828;2023-04-19T11:50:40;100320;;;22;39
33432;BME280;35187;31.882;34.828;2023-04-19T11:53:12;100300;;;21;39
33432;BME280;35187;31.882;34.828;2023-04-19T11:55:43;100300;;;22;40
33432;BME280;35187;31.882;34.828;2023-04-19T11:58:26;100290;;;22;40
33432;BME280;35187;31.882;34.828;2023-04-19T12:00:56;100310;;;22;40
33432;BME280;35187;31.882;34.828;2023-04-19T12:03:25;100310;;;22;40
33432;BME280;35187;31.882;34.828;2023-04-19T12:05:55;100320;;;22;40
33432;BME280;35187;31.882;34.828;2023-04-19T12:08:33;100340;;;22;40
33432;BME280;35187;31.882;34.828;2023-04-19T12:11:12;100350;;;22;40
33432;BME280;35187;31.882;34.828;2023-04-19T12:13:42;100340;;;22;41
33432;BME280;35187;31.882;34.828;2023-04-19T12:16:11;100330;;;22;41
33432;BME280;35187;31.882;34.828;2023-04-19T12:18:43;100310;;;22;41
33432;BME280;35187;31.882;34.828;2023-04-19T12:21:24;100320;;;21;41
33432;BME280;35187;31.882;34.828;2023-04-19T12:23:54;100330;;;22;41
33432;BME280;35187;31.882;34.828;2023-04-19T12:26:24;100340;;;22;41
33432;BME280;35187;31.882;34.828;2023-04-19T12:28:53;100350;;;22;41
33432;BME280;35187;31.882;34.828;2023-04-19T12:31:22;100330;;;22;41
33432;BME280;35187;31.882;34.828;2023-04-19T12:33:51;100340;;;22;41
33432;BME280;35187;31.882;34.828;2023-04-19T12:36:20;100350;;;22;41
33432;BME280;35187;31.882;34.828;2023-04-19T12:38:49;100370;;;21;41
33432;BME280;35187;31.882;34.828;2023-04-19T12:41:18;100370;;;22;41
33432;BME280;35187;31.882;34.828;2023-04-19T12:43:47;100370;;;22;41
33432;BME280;35187;31.882;34.828;2023-04-19T12:46:16;100360;;;22;41
33432;BME280;35187;31.882;34.828;2023-04-19T12:48:45;100340;;;22;42
33432;BME280;35187;31.882;34.828;2023-04-19T12:51:13;100330;;;22;42
33432;BME280;35187;31.882;34.828;2023-04-19T12:53:47;100320;;;22;42
33432;BME280;35187;31.882;34.828;2023-04-19T12:56:17;100330;;;22;42
33432;BME280;35187;31.882;34.828;2023-04-19T12:58:46;100340;;;22;42
33432;BME280;35187;31.882;34.828;2023-04-19T13:01:15;100330;;;22;42
33432;BME280;35187;31.882;34.828;2023-04-19T13:03:54;100320;;;21;42
33432;BME280;35187;31.882;34.828;2023-04-19T13:06:23;100310;;;22;42
33432;BME280;35187;31.882;34.828;2023-04-19T13:08:52;100310;;;21;42
33432;BME280;35187;31.882;34.828;2023-04-19T13:11:21;100310;;;22;42
33432;BME280;35187;31.882;34.828;2023-04-19T13:13:50;100310;;;22;42
33432;BME280;35187;31.882;34.828;2023-04-19T13:16:19;100310;;;21;42
33432;BME280;35187;31.882;34.828;2023-04-19T13:18:48;100310;;;22;42
33432;BME280;35187;31.882;34.828;2023-04-19T13:21:17;100310;;;21;42
33432;BME280;35187;31.882;34.828;2023-04-19T13:23:46;100310;;;22;42
33432;BME280;35187;31.882;34.828;2023-04-19T13:26:15;100300;;;22;42
33432;BME280;35187;31.882;34.828;2023-04-19T13:28:44;100300;;;22;42
33432;BME280;35187;31.882;34.828;2023-04-19T13:31:13;100310;;;22;42
33432;BME280;35187;31.882;34.828;2023-04-19T13:33:41;100320;;;22;43
33432;BME280;35187;31.882;34.828;2023-04-19T13:36:10;100320;;;22;43
33432;BME280;35187;31.882;34.828;2023-04-19T13:38:39;100320;;;22;42
33432;BME280;35187;31.882;34.828;2023-04-19T13:41:09;100310;;;21;42
33432;BME280;35187;31.882;34.828;2023-04-19T13:43:38;100300;;;22;43
33432;BME280;35187;31.882;34.828;2023-04-19T13:46:07;100300;;;22;43
33432;BME280;35187;31.882;34.828;2023-04-19T13:48:36;100310;;;22;43
33432;BME280;35187;31.882;34.828;2023-04-19T13:51:06;100310;;;22;44
33432;BME280;35187;31.882;34.828;2023-04-19T13:53:35;100310;;;22;44
33432;BME280;35187;31.882;34.828;2023-04-19T13:56:05;100310;;;22;44
33432;BME280;35187;31.882;34.828;2023-04-19T13:58:34;100300;;;22;44
33432;BME280;35187;31.882;34.828;2023-04-19T14:01:03;100310;;;22;44
33432;BME280;35187;31.882;34.828;2023-04-19T14:03:32;100310;;;22;44
33432;BME280;35187;31.882;34.828;2023-04-19T14:06:01;100320;;;22;44
33432;BME280;35187;31.882;34.828;2023-04-19T14:08:30;100320;;;22;44
33432;BME280;35187;31.882;34.828;2023-04-19T14:10:59;100320;;;22;44
33432;BME280;35187;31.882;34.828;2023-04-19T14:13:28;100320;;;22;44
33432;BME280;35187;31.882;34.828;2023-04-19T14:15:57;100320;;;22;44
33432;BME280;35187;31.882;34.828;2023-04-19T14:18:26;100320;;;22;43
33432;BME280;35187;31.882;34.828;2023-04-19T14:20:55;100320;;;22;44
33432;BME280;35187;31.882;34.828;2023-04-19T14:23:24;100310;;;22;44
33432;BME280;35187;31.882;34.828;2023-04-19T14:25:54;100320;;;22;44
33432;BME280;35187;31.882;34.828;2023-04-19T14:28:23;100320;;;22;44
33432;BME280;35187;31.882;34.828;2023-04-19T14:30:52;100320;;;22;43
33432;BME280;35187;31.882;34.828;2023-04-19T14:33:20;100330;;;22;43
33432;BME280;35187;31.882;34.828;2023-04-19T14:35:49;100330;;;22;42
33432;BME280;35187;31.882;34.828;2023-04-19T14:38:18;100330;;;22;42
33432;BME280;35187;31.882;34.828;2023-04-19T14:40:47;100320;;;22;42
33432;BME280;35187;31.882;34.828;2023-04-19T14:43:16;100330;;;22;42
33432;BME280;35187;31.882;34.828;2023-04-19T14:45:47;100320;;;22;41
33432;BME280;35187;31.882;34.828;2023-04-19T14:48:17;100330;;;22;41
33432;BME280;35187;31.882;34.828;2023-04-19T14:50:46;100330;;;22;41
33432;BME280;35187;31.882;34.828;2023-04-19T14:53:15;100330;;;22;41
33432;BME280;35187;31.882;34.828;2023-04-19T14:55:44;100320;;;22;41
33432;BME280;35187;31.882;34.828;2023-04-19T14:58:13;100330;;;22;41
33432;BME280;35187;31.882;34.828;2023-04-19T15:00:43;100340;;;22;41
33432;BME280;35187;31.882;34.828;2023-04-19T15:03:12;100340;;;22;41
33432;BME280;35187;31.882;34.828;2023-04-19T15:05:41;100340;;;22;41
33432;BME280;35187;31.882;34.828;2023-04-19T15:08:10;100330;;;22;42
33432;BME280;35187;31.882;34.828;2023-04-19T15:10:39;100340;;;22;42
33432;BME280;35187;31.882;34.828;2023-04-19T15:13:08;100320;;;22;42
33432;BME280;35187;31.882;34.828;2023-04-19T15:15:37;100330;;;22;42
33432;BME280;35187;31.882;34.828;2023-04-19T15:18:05;100330;;;22;42